McNeil Island, Washington
Current Conditions -  °F | °C
As of 5:44 PM on Friday 21 Nov 2014 (Local Time) from KTCM Reporting Station
Light Rain Light Rain  
Wind Chill: 52°   Ceiling: 3100
Heat Index: 52°   Visibility: 10mi
Dew Point: 50°   Wind: 12mph
Humidity: 94%   Direction: 180°S
Pressure: 29.31"   Gusts: NA
Location:  47.1696°N, 122.593°W
Report Text: KTCM 220144Z AUTO 18010KT 10SM -RA FEW018 SCT023 BKN031 OVC040 11/10 A2931 RMK AO2 RAE0141 CIG 021 RWY34 $
Loading
Personal Weather Stations






























Interactive Weather Map New forecast layout! Learn more

10-Day Weather Forecast

Advertisements
Track Severe Weather on mobile